LOWG/GRZ METAR and TAF weather

Enter ICAO airport designator
Station Type Date Time Source
LOWG METAR 2021/02/27 08:50 UTC NOAA

LOWG 270850Z 24004KT 200V270 9999 FEW020 07/04 Q1031 TEMPO FM1000 35007KT


Station Type Date Time Source
LOWG Decoded METAR 2021/02/27 08:50 UTC NOAA

Graz-Thalerhof-Flughafen, Austria (LOWG) 47-00N 015-26E 347M
Feb 27, 2021 - 03:50 AM EST / 2021.02.27 0850 UTC
Wind: from the WSW (240 degrees) at 5 MPH (4 KT) (direction variable):0
Visibility: greater than 7 mile(s):0
Sky conditions: mostly clear
Temperature: 44 F (7 C)
Dew Point: 39 F (4 C)
Relative Humidity: 81%
Pressure (altimeter): 30.45 in. Hg (1031 hPa)
ob: LOWG 270850Z 24004KT 200V270 9999 FEW020 07/04 Q1031 TEMPO FM1000 35007KT
cycle: 9

Station Type Date Time Source
LOWG TAF 2021/02/27 06:18 UTC NOAA

TAF TAF LOWG 270515Z 2706/2806 35005KT CAVOK TX12/2714Z TNM03/2806Z
TEMPO 2711/2716 35008KT PROB30
TEMPO 2803/2806 0400 BCFG

Example: see airport list